Terminal Aerodrome Forecast
Issued by NWS Sterling, VA

Current Version | Previous Version | Text Only | Print | Product List | Glossary Off
Versions: 1 2 3 4 5 6 7 8 9 10 11 12 13 14 15 16 17 18 19 20 21 22 23 24

000
FTUS41 KLWX 290500
TAFIAD
TAF
KIAD 290524Z 2906/3012 21006KT P6SM BKN150
     FM291300 30004KT P6SM BKN050
     FM291400 30006KT 6SM -SHRA BKN050
     FM291600 31007KT P6SM BKN045
     FM300200 32005KT P6SM SCT250=

USA.gov is the U.S. government's official web portal to all federal, state and local government web resources and services.